This demonstration page uses our WeatherBlox Daily Observations layout. Learn more.

38.88101, -77.10428

Hourly Observations for November 2, 2016

Temp ( °F °C ) Dew Point ( °F °C ) Humidity (%) Winds ( mph kmh ) Pressure ( in mb ) Visibility ( mi km ) Precip ( " mm )
12:52 am 00:52 Cloudy 56 13.3 52 11.1 87 87 S 7 11 30.3 1026 10 16.09344 0 0
1:52 am 01:52 Mostly Cloudy 56 13.3 52 11.1 87 87 S 7 11 30.3 1026 10 16.09344 0 0
2:52 am 02:52 Mostly Cloudy 54 12.2 52 11.1 93 93 S 6 9 30.3 1026 10 16.09344 0 0
3:52 am 03:52 Mostly Cloudy 56 13.3 52 11.1 87 87 S 8 13 30.3 1026 10 16.09344 0 0
4:52 am 04:52 Partly Cloudy 54 12.2 51 10.6 90 90 SSW 5 7 30.3 1026 10 16.09344 0 0
5:45 am 05:45 Cloudy 54 12.2 52 11.1 93 93 SSW 6 9 30.3 1026 10 16.09344 0 0
5:52 am 05:52 Cloudy 54 12.2 52 11.1 93 93 S 6 9 30.3 1026 10 16.09344 0 0
6:19 am 06:19 Cloudy 55 12.8 53 11.7 93 93 SSE 5 7 30.3 1026 10 16.09344 0 0
6:52 am 06:52 Cloudy 55 12.8 53 11.7 93 93 SSW 5 7 30.3 1026 10 16.09344 0 0
7:52 am 07:52 Cloudy 56 13.3 53 11.7 90 90 Calm 30.3 1026 10 16.09344 0 0
8:19 am 08:19 Mostly Cloudy 56 13.3 52 11.1 87 87 SW 3 6 30.3 1026 10 16.09344 0 0
8:52 am 08:52 Mostly Cloudy 57 13.9 53 11.7 87 87 SSW 3 6 30.3 1026 10 16.09344 0 0
9:27 am 09:27 Mostly Cloudy 57 14 54 12 88 88 N 5 7 30.3 1026 10 16.09344 0 0
9:52 am 09:52 Mostly Cloudy 59 15 55 12.8 87 87 WSW 8 13 30.3 1026 10 16.09344 0 0
10:34 am 10:34 Mostly Cloudy 61 16 55 13 83 83 S 7 11 30.3 1026 10 16.09344 0 0
10:52 am 10:52 Mostly Cloudy 60 15.6 56 13.3 86 86 S 6 9 30.3 1026 10 16.09344 0 0
11:52 am 11:52 Mostly Cloudy 63 17.2 56 13.3 78 78 SSE 6 9 30.27 1025 10 16.09344 0 0
12:52 pm 12:52 Mostly Cloudy 66 18.9 57 13.9 73 73 SSE 3 6 30.27 1025 10 16.09344 0 0
1:52 pm 13:52 Mostly Cloudy 69 20.6 58 14.4 68 68 SSE 5 7 30.24 1024 10 16.09344 0 0
2:52 pm 14:52 Mostly Cloudy 71 21.7 59 15 66 66 S 6 9 30.21 1023 10 16.09344 0 0
3:52 pm 15:52 Mostly Cloudy 73 22.8 60 15.6 64 64 S 7 11 30.21 1023 10 16.09344 0 0
4:52 pm 16:52 Mostly Cloudy 71 21.7 59 15 66 66 S 5 7 30.18 1022 10 16.09344 0 0
5:52 pm 17:52 Mostly Cloudy 68 20 60 15.6 76 76 S 7 11 30.18 1022 10 16.09344 0 0
6:52 pm 18:52 Mostly Cloudy 66 18.9 61 16.1 84 84 S 7 11 30.18 1022 10 16.09344 0 0
7:52 pm 19:52 Mostly Cloudy 66 18.9 61 16.1 84 84 S 3 6 30.18 1022 10 16.09344 0 0
8:52 pm 20:52 Mostly Cloudy 63 17.2 60 15.6 90 90 SSW 5 7 30.18 1022 10 16.09344 0 0
9:52 pm 21:52 Mostly Cloudy 62 16.7 61 16.1 96 96 S 6 9 30.18 1022 9 14.484096 0 0
10:52 pm 22:52 Mostly Cloudy 62 16.7 60 15.6 93 93 SSW 3 6 30.18 1022 10 16.09344 0 0
11:52 pm 23:52 Mostly Cloudy 61 16.1 60 15.6 97 97 S 6 9 30.15 1021 10 16.09344 0 0

Powered by AerisWeather